Four Corners, Iowa
Current Conditions -  °F | °C
As of 5:55 PM on Saturday 25 Oct 2014 (Local Time) from KFFL Reporting Station
Clear Clear  
Wind Chill: 66°   Ceiling: Unl
Heat Index: 66°   Visibility: NA
Dew Point: 37°   Wind: 6mph
Humidity: 35%   Direction: 340°NNW
Pressure: 30.04"   Gusts: NA
Location:  41.03°N, 91.778°W
Report Text: KFFL 252255Z AUTO 34005KT CLR 19/03 A3004 RMK AO2
Loading
Personal Weather Stations






























Interactive Weather Map
Tropical Storm Tracking
New forecast layout! Learn more

10-Day Weather Forecast

Advertisements
Track Severe Weather on mobile